sensor_id;sensor_type;location;lat;lon;timestamp;pressure;altitude;pressure_sealevel;temperature;humidity
19736;BME280;32064;49.310;8.646;2022-08-26T00:00:31;100099.75;;;25.28;56.47
19736;BME280;32064;49.310;8.646;2022-08-26T00:02:59;100094.78;;;25.25;55.86
19736;BME280;32064;49.310;8.646;2022-08-26T00:05:25;100100.59;;;25.22;56.00
19736;BME280;32064;49.310;8.646;2022-08-26T00:07:51;100095.84;;;25.17;56.11
19736;BME280;32064;49.310;8.646;2022-08-26T00:10:18;100092.91;;;25.12;56.35
19736;BME280;32064;49.310;8.646;2022-08-26T00:12:44;100098.72;;;25.09;55.73
19736;BME280;32064;49.310;8.646;2022-08-26T00:15:12;100089.41;;;25.05;55.76
19736;BME280;32064;49.310;8.646;2022-08-26T00:17:38;100097.06;;;25.01;56.12
19736;BME280;32064;49.310;8.646;2022-08-26T00:20:06;100097.31;;;25.00;56.23
19736;BME280;32064;49.310;8.646;2022-08-26T00:22:32;100093.34;;;24.96;56.06
19736;BME280;32064;49.310;8.646;2022-08-26T00:24:57;100088.63;;;24.91;56.23
19736;BME280;32064;49.310;8.646;2022-08-26T00:27:23;100089.44;;;24.92;56.24
19736;BME280;32064;49.310;8.646;2022-08-26T00:29:48;100095.25;;;24.89;56.11
19736;BME280;32064;49.310;8.646;2022-08-26T00:32:13;100096.69;;;24.84;56.63
19736;BME280;32064;49.310;8.646;2022-08-26T00:34:39;100095.25;;;24.82;56.42
19736;BME280;32064;49.310;8.646;2022-08-26T00:37:04;100091.09;;;24.79;56.04
19736;BME280;32064;49.310;8.646;2022-08-26T00:39:30;100089.84;;;24.82;55.80
19736;BME280;32064;49.310;8.646;2022-08-26T00:41:56;100084.47;;;24.82;55.82
19736;BME280;32064;49.310;8.646;2022-08-26T00:44:21;100086.56;;;24.80;55.55
19736;BME280;32064;49.310;8.646;2022-08-26T00:46:50;100079.28;;;24.74;56.22
19736;BME280;32064;49.310;8.646;2022-08-26T00:49:24;100082.00;;;24.67;56.09
19736;BME280;32064;49.310;8.646;2022-08-26T00:51:56;100085.13;;;24.64;56.27
19736;BME280;32064;49.310;8.646;2022-08-26T00:54:24;100079.31;;;24.60;56.60
19736;BME280;32064;49.310;8.646;2022-08-26T00:57:02;100079.94;;;24.56;56.30
19736;BME280;32064;49.310;8.646;2022-08-26T00:59:30;100080.53;;;24.51;55.94
19736;BME280;32064;49.310;8.646;2022-08-26T01:01:57;100083.47;;;24.50;56.27
19736;BME280;32064;49.310;8.646;2022-08-26T01:04:23;100080.97;;;24.48;56.40
19736;BME280;32064;49.310;8.646;2022-08-26T01:06:51;100082.19;;;24.46;56.29
19736;BME280;32064;49.310;8.646;2022-08-26T01:09:18;100086.56;;;24.47;56.54
19736;BME280;32064;49.310;8.646;2022-08-26T01:11:46;100085.09;;;24.44;56.58
19736;BME280;32064;49.310;8.646;2022-08-26T01:14:15;100088.38;;;24.39;56.75
19736;BME280;32064;49.310;8.646;2022-08-26T01:16:42;100088.59;;;24.38;57.20
19736;BME280;32064;49.310;8.646;2022-08-26T01:19:43;100088.97;;;24.28;56.75
19736;BME280;32064;49.310;8.646;2022-08-26T01:22:16;100084.84;;;24.26;56.89
19736;BME280;32064;49.310;8.646;2022-08-26T01:24:44;100084.66;;;24.27;56.72
19736;BME280;32064;49.310;8.646;2022-08-26T01:27:12;100076.34;;;24.22;57.09
19736;BME280;32064;49.310;8.646;2022-08-26T01:29:42;100082.97;;;24.19;57.26
19736;BME280;32064;49.310;8.646;2022-08-26T01:32:09;100096.63;;;24.18;57.75
19736;BME280;32064;49.310;8.646;2022-08-26T01:34:37;100093.31;;;24.16;57.27
19736;BME280;32064;49.310;8.646;2022-08-26T01:37:10;100088.53;;;24.11;58.30
19736;BME280;32064;49.310;8.646;2022-08-26T01:39:38;100085.25;;;24.09;58.24
19736;BME280;32064;49.310;8.646;2022-08-26T01:42:06;100086.47;;;24.07;58.41
19736;BME280;32064;49.310;8.646;2022-08-26T01:44:37;100079.66;;;24.04;58.53
19736;BME280;32064;49.310;8.646;2022-08-26T01:47:05;100085.63;;;24.00;58.30
19736;BME280;32064;49.310;8.646;2022-08-26T01:49:32;100088.31;;;24.00;58.52
19736;BME280;32064;49.310;8.646;2022-08-26T01:52:02;100080.66;;;23.96;58.22
19736;BME280;32064;49.310;8.646;2022-08-26T01:54:28;100094.09;;;23.96;58.48
19736;BME280;32064;49.310;8.646;2022-08-26T01:56:54;100097.81;;;23.95;59.20
19736;BME280;32064;49.310;8.646;2022-08-26T01:59:21;100093.88;;;23.91;59.33
19736;BME280;32064;49.310;8.646;2022-08-26T02:01:48;100087.25;;;23.94;59.15
19736;BME280;32064;49.310;8.646;2022-08-26T02:04:24;100099.47;;;23.90;59.62
19736;BME280;32064;49.310;8.646;2022-08-26T02:06:52;100093.63;;;23.86;59.43
19736;BME280;32064;49.310;8.646;2022-08-26T02:09:19;100104.59;;;23.85;58.98
19736;BME280;32064;49.310;8.646;2022-08-26T02:11:46;100101.28;;;23.76;58.18
19736;BME280;32064;49.310;8.646;2022-08-26T02:14:15;100104.50;;;23.65;59.28
19736;BME280;32064;49.310;8.646;2022-08-26T02:16:43;100101.59;;;23.66;58.83
19736;BME280;32064;49.310;8.646;2022-08-26T02:19:15;100100.16;;;23.64;58.85
19736;BME280;32064;49.310;8.646;2022-08-26T02:21:42;100105.13;;;23.67;59.04
19736;BME280;32064;49.310;8.646;2022-08-26T02:24:11;100102.84;;;23.64;59.04
19736;BME280;32064;49.310;8.646;2022-08-26T02:26:37;100111.94;;;23.63;58.99
19736;BME280;32064;49.310;8.646;2022-08-26T02:29:12;100104.50;;;23.58;58.90
19736;BME280;32064;49.310;8.646;2022-08-26T02:31:40;100100.75;;;23.59;59.29
19736;BME280;32064;49.310;8.646;2022-08-26T02:34:19;100102.38;;;23.53;59.45
19736;BME280;32064;49.310;8.646;2022-08-26T02:36:45;100092.88;;;23.58;58.93
19736;BME280;32064;49.310;8.646;2022-08-26T02:39:11;100101.16;;;23.56;59.64
19736;BME280;32064;49.310;8.646;2022-08-26T02:41:36;100097.84;;;23.61;58.98
19736;BME280;32064;49.310;8.646;2022-08-26T02:44:03;100102.81;;;23.57;58.89
19736;BME280;32064;49.310;8.646;2022-08-26T02:46:30;100108.19;;;23.57;59.62
19736;BME280;32064;49.310;8.646;2022-08-26T02:48:56;100096.19;;;23.53;59.79
19736;BME280;32064;49.310;8.646;2022-08-26T02:51:22;100107.75;;;23.53;59.89
19736;BME280;32064;49.310;8.646;2022-08-26T02:53:48;100100.28;;;23.49;59.22
19736;BME280;32064;49.310;8.646;2022-08-26T02:56:13;100106.88;;;23.46;59.52
19736;BME280;32064;49.310;8.646;2022-08-26T02:58:39;100108.34;;;23.49;58.85
19736;BME280;32064;49.310;8.646;2022-08-26T03:01:04;100105.06;;;23.47;59.35
19736;BME280;32064;49.310;8.646;2022-08-26T03:03:30;100101.31;;;23.41;59.71
19736;BME280;32064;49.310;8.646;2022-08-26T03:05:56;100102.31;;;23.40;59.01
19736;BME280;32064;49.310;8.646;2022-08-26T03:08:21;100101.31;;;23.41;59.64
19736;BME280;32064;49.310;8.646;2022-08-26T03:10:47;100092.19;;;23.36;59.21
19736;BME280;32064;49.310;8.646;2022-08-26T03:13:13;100085.34;;;23.33;59.42
19736;BME280;32064;49.310;8.646;2022-08-26T03:15:39;100093.81;;;23.30;60.13
19736;BME280;32064;49.310;8.646;2022-08-26T03:18:04;100096.25;;;23.25;59.40
19736;BME280;32064;49.310;8.646;2022-08-26T03:20:31;100098.31;;;23.23;59.76
19736;BME280;32064;49.310;8.646;2022-08-26T03:22:57;100108.22;;;23.22;60.17
19736;BME280;32064;49.310;8.646;2022-08-26T03:25:22;100103.25;;;23.19;59.56
19736;BME280;32064;49.310;8.646;2022-08-26T03:27:50;100106.31;;;23.16;60.76
19736;BME280;32064;49.310;8.646;2022-08-26T03:30:16;100107.16;;;23.17;60.85
19736;BME280;32064;49.310;8.646;2022-08-26T03:33:01;100111.09;;;23.21;59.96
19736;BME280;32064;49.310;8.646;2022-08-26T03:35:27;100113.56;;;23.16;60.40
19736;BME280;32064;49.310;8.646;2022-08-26T03:37:52;100116.25;;;23.16;61.09
19736;BME280;32064;49.310;8.646;2022-08-26T03:40:19;100112.09;;;23.13;60.99
19736;BME280;32064;49.310;8.646;2022-08-26T03:42:44;100108.94;;;23.09;60.29
19736;BME280;32064;49.310;8.646;2022-08-26T03:45:11;100112.66;;;23.08;60.10
19736;BME280;32064;49.310;8.646;2022-08-26T03:47:38;100116.38;;;23.07;60.85
19736;BME280;32064;49.310;8.646;2022-08-26T03:50:08;100111.59;;;23.03;60.80
19736;BME280;32064;49.310;8.646;2022-08-26T03:52:34;100108.09;;;23.02;61.18
19736;BME280;32064;49.310;8.646;2022-08-26T03:55:00;100110.13;;;23.00;60.99
19736;BME280;32064;49.310;8.646;2022-08-26T03:57:25;100113.03;;;22.99;61.60
19736;BME280;32064;49.310;8.646;2022-08-26T03:59:51;100110.53;;;22.97;61.19
19736;BME280;32064;49.310;8.646;2022-08-26T04:02:17;100103.72;;;23.01;62.41
19736;BME280;32064;49.310;8.646;2022-08-26T04:04:42;100112.63;;;23.02;62.66
19736;BME280;32064;49.310;8.646;2022-08-26T04:07:08;100111.78;;;23.01;62.56
19736;BME280;32064;49.310;8.646;2022-08-26T04:09:33;100120.03;;;23.00;62.89
19736;BME280;32064;49.310;8.646;2022-08-26T04:11:59;100116.72;;;22.98;62.47
19736;BME280;32064;49.310;8.646;2022-08-26T04:14:26;100119.13;;;22.93;63.00
19736;BME280;32064;49.310;8.646;2022-08-26T04:16:52;100116.44;;;22.93;62.64
19736;BME280;32064;49.310;8.646;2022-08-26T04:19:19;100120.16;;;22.92;63.09
19736;BME280;32064;49.310;8.646;2022-08-26T04:21:47;100120.53;;;22.89;62.83
19736;BME280;32064;49.310;8.646;2022-08-26T04:24:14;100115.19;;;22.89;63.04
19736;BME280;32064;49.310;8.646;2022-08-26T04:26:41;100118.03;;;22.87;62.07
19736;BME280;32064;49.310;8.646;2022-08-26T04:29:10;100126.47;;;22.84;63.09
19736;BME280;32064;49.310;8.646;2022-08-26T04:31:37;100113.72;;;22.86;61.70
19736;BME280;32064;49.310;8.646;2022-08-26T04:34:03;100118.25;;;22.85;62.12
19736;BME280;32064;49.310;8.646;2022-08-26T04:36:29;100117.44;;;22.85;62.97
19736;BME280;32064;49.310;8.646;2022-08-26T04:38:55;100118.25;;;22.85;62.54
19736;BME280;32064;49.310;8.646;2022-08-26T04:41:22;100117.44;;;22.85;62.56
19736;BME280;32064;49.310;8.646;2022-08-26T04:43:48;100121.97;;;22.84;63.13
19736;BME280;32064;49.310;8.646;2022-08-26T04:46:20;100123.41;;;22.87;62.72
19736;BME280;32064;49.310;8.646;2022-08-26T04:48:47;100121.63;;;22.94;61.78
19736;BME280;32064;49.310;8.646;2022-08-26T04:51:15;100121.91;;;22.99;62.88
19736;BME280;32064;49.310;8.646;2022-08-26T04:53:40;100126.88;;;23.02;63.01
19736;BME280;32064;49.310;8.646;2022-08-26T04:56:06;100124.84;;;23.04;62.33
19736;BME280;32064;49.310;8.646;2022-08-26T04:58:33;100130.41;;;23.09;62.17
19736;BME280;32064;49.310;8.646;2022-08-26T05:00:58;100127.16;;;23.14;62.31
19736;BME280;32064;49.310;8.646;2022-08-26T05:03:24;100121.59;;;23.16;62.63
19736;BME280;32064;49.310;8.646;2022-08-26T05:05:52;100126.59;;;23.19;62.20
19736;BME280;32064;49.310;8.646;2022-08-26T05:08:19;100134.66;;;23.25;62.28
19736;BME280;32064;49.310;8.646;2022-08-26T05:10:51;100132.41;;;23.29;62.91
19736;BME280;32064;49.310;8.646;2022-08-26T05:13:21;100136.16;;;23.35;63.23
19736;BME280;32064;49.310;8.646;2022-08-26T05:15:47;100128.34;;;23.40;62.66
19736;BME280;32064;49.310;8.646;2022-08-26T05:18:15;100131.91;;;23.47;62.74
19736;BME280;32064;49.310;8.646;2022-08-26T05:20:44;100130.47;;;23.51;62.57
19736;BME280;32064;49.310;8.646;2022-08-26T05:23:10;100125.53;;;23.54;62.11
19736;BME280;32064;49.310;8.646;2022-08-26T05:25:37;100130.50;;;23.58;62.66
19736;BME280;32064;49.310;8.646;2022-08-26T05:28:04;100125.75;;;23.60;63.02
19736;BME280;32064;49.310;8.646;2022-08-26T05:30:30;100129.94;;;23.69;63.20
19736;BME280;32064;49.310;8.646;2022-08-26T05:32:55;100130.41;;;23.72;62.22
19736;BME280;32064;49.310;8.646;2022-08-26T05:35:21;100134.97;;;23.79;62.27
19736;BME280;32064;49.310;8.646;2022-08-26T05:37:47;100136.84;;;23.85;61.91
19736;BME280;32064;49.310;8.646;2022-08-26T05:40:13;100130.88;;;23.89;61.98
19736;BME280;32064;49.310;8.646;2022-08-26T05:42:39;100129.63;;;23.92;61.57
19736;BME280;32064;49.310;8.646;2022-08-26T05:45:05;100137.09;;;23.90;61.20
19736;BME280;32064;49.310;8.646;2022-08-26T05:47:30;100142.28;;;23.98;62.14
19736;BME280;32064;49.310;8.646;2022-08-26T05:49:56;100146.22;;;24.09;61.99
19736;BME280;32064;49.310;8.646;2022-08-26T05:52:21;100136.97;;;24.18;61.11
19736;BME280;32064;49.310;8.646;2022-08-26T05:54:47;100147.31;;;24.28;61.21
19736;BME280;32064;49.310;8.646;2022-08-26T05:57:12;100149.22;;;24.40;61.49
19736;BME280;32064;49.310;8.646;2022-08-26T05:59:38;100142.41;;;24.51;61.02
19736;BME280;32064;49.310;8.646;2022-08-26T06:02:04;100152.38;;;24.57;60.93
19736;BME280;32064;49.310;8.646;2022-08-26T06:04:30;100149.06;;;24.62;60.08
19736;BME280;32064;49.310;8.646;2022-08-26T06:06:56;100149.09;;;24.69;60.38
19736;BME280;32064;49.310;8.646;2022-08-26T06:09:22;100159.63;;;24.70;60.67
19736;BME280;32064;49.310;8.646;2022-08-26T06:11:47;100157.16;;;24.75;60.22
19736;BME280;32064;49.310;8.646;2022-08-26T06:14:13;100163.16;;;24.84;59.77
19736;BME280;32064;49.310;8.646;2022-08-26T06:16:40;100164.59;;;24.93;59.27
19736;BME280;32064;49.310;8.646;2022-08-26T06:19:09;100179.31;;;25.04;59.42
19736;BME280;32064;49.310;8.646;2022-08-26T06:21:35;100179.34;;;25.17;59.33
19736;BME280;32064;49.310;8.646;2022-08-26T06:24:06;100179.94;;;25.26;59.24
19736;BME280;32064;49.310;8.646;2022-08-26T06:26:54;100183.66;;;25.25;58.74
19736;BME280;32064;49.310;8.646;2022-08-26T06:29:24;100184.50;;;25.25;58.91
19736;BME280;32064;49.310;8.646;2022-08-26T06:31:51;100185.97;;;25.28;58.68
19736;BME280;32064;49.310;8.646;2022-08-26T06:34:17;100188.22;;;25.38;58.73
19736;BME280;32064;49.310;8.646;2022-08-26T06:36:43;100182.56;;;25.52;58.66
19736;BME280;32064;49.310;8.646;2022-08-26T06:39:10;100182.75;;;25.64;58.29
19736;BME280;32064;49.310;8.646;2022-08-26T06:41:37;100179.22;;;26.60;56.20
19736;BME280;32064;49.310;8.646;2022-08-26T06:44:05;100180.88;;;29.24;48.93
19736;BME280;32064;49.310;8.646;2022-08-26T06:46:30;100184.53;;;29.42;49.45
19736;BME280;32064;49.310;8.646;2022-08-26T06:48:56;100192.94;;;31.46;44.85
19736;BME280;32064;49.310;8.646;2022-08-26T06:51:29;100193.97;;;32.55;42.20
19736;BME280;32064;49.310;8.646;2022-08-26T06:53:57;100201.22;;;33.41;40.82
19736;BME280;32064;49.310;8.646;2022-08-26T06:56:31;100190.41;;;34.24;38.97
19736;BME280;32064;49.310;8.646;2022-08-26T06:58:57;100194.03;;;35.06;38.09
19736;BME280;32064;49.310;8.646;2022-08-26T07:01:28;100191.72;;;35.70;37.13
19736;BME280;32064;49.310;8.646;2022-08-26T07:03:57;100183.09;;;33.24;40.70
19736;BME280;32064;49.310;8.646;2022-08-26T07:06:24;100197.00;;;31.87;43.87
19736;BME280;32064;49.310;8.646;2022-08-26T07:08:51;100202.59;;;32.47;41.29
19736;BME280;32064;49.310;8.646;2022-08-26T07:11:18;100196.31;;;33.48;40.00
19736;BME280;32064;49.310;8.646;2022-08-26T07:13:45;100196.38;;;33.53;40.67
19736;BME280;32064;49.310;8.646;2022-08-26T07:16:12;100210.16;;;32.39;41.79
19736;BME280;32064;49.310;8.646;2022-08-26T07:18:39;100192.97;;;30.95;44.31
19736;BME280;32064;49.310;8.646;2022-08-26T07:21:08;100196.06;;;31.21;43.64
19736;BME280;32064;49.310;8.646;2022-08-26T07:23:35;100192.97;;;32.66;41.15
19736;BME280;32064;49.310;8.646;2022-08-26T07:26:05;100199.69;;;33.18;41.09
19736;BME280;32064;49.310;8.646;2022-08-26T07:28:31;100207.44;;;34.77;37.11
19736;BME280;32064;49.310;8.646;2022-08-26T07:30:56;100208.00;;;36.60;34.95
19736;BME280;32064;49.310;8.646;2022-08-26T07:33:22;100209.19;;;37.66;33.51
19736;BME280;32064;49.310;8.646;2022-08-26T07:35:48;100204.84;;;38.08;33.06
19736;BME280;32064;49.310;8.646;2022-08-26T07:38:13;100204.84;;;38.27;32.49
19736;BME280;32064;49.310;8.646;2022-08-26T07:40:39;100212.19;;;38.69;32.24
19736;BME280;32064;49.310;8.646;2022-08-26T07:43:06;100217.22;;;39.46;31.17
19736;BME280;32064;49.310;8.646;2022-08-26T07:45:31;100222.97;;;40.00;30.69
19736;BME280;32064;49.310;8.646;2022-08-26T07:47:58;100211.56;;;39.51;31.05
19736;BME280;32064;49.310;8.646;2022-08-26T07:50:23;100214.06;;;38.17;32.33
19736;BME280;32064;49.310;8.646;2022-08-26T07:52:48;100205.81;;;37.74;32.29
19736;BME280;32064;49.310;8.646;2022-08-26T07:55:14;100212.44;;;38.54;31.99
19736;BME280;32064;49.310;8.646;2022-08-26T07:57:40;100206.88;;;37.54;32.65
19736;BME280;32064;49.310;8.646;2022-08-26T08:00:08;100208.91;;;35.86;35.02
19736;BME280;32064;49.310;8.646;2022-08-26T08:02:34;100212.63;;;34.89;36.52
19736;BME280;32064;49.310;8.646;2022-08-26T08:05:00;100202.66;;;34.16;36.71
19736;BME280;32064;49.310;8.646;2022-08-26T08:07:26;100201.72;;;33.80;38.24
19736;BME280;32064;49.310;8.646;2022-08-26T08:09:52;100205.31;;;33.43;38.67
19736;BME280;32064;49.310;8.646;2022-08-26T08:12:18;100201.22;;;33.46;38.21
19736;BME280;32064;49.310;8.646;2022-08-26T08:14:44;100200.75;;;33.54;38.78
19736;BME280;32064;49.310;8.646;2022-08-26T08:17:12;100200.63;;;33.91;37.78
19736;BME280;32064;49.310;8.646;2022-08-26T08:19:38;100194.47;;;34.11;37.34
19736;BME280;32064;49.310;8.646;2022-08-26T08:22:04;100197.59;;;34.66;36.07
19736;BME280;32064;49.310;8.646;2022-08-26T08:24:31;100196.94;;;36.26;34.52
19736;BME280;32064;49.310;8.646;2022-08-26T08:27:00;100195.56;;;36.68;33.95
19736;BME280;32064;49.310;8.646;2022-08-26T08:29:26;100197.34;;;37.89;31.94
19736;BME280;32064;49.310;8.646;2022-08-26T08:31:55;100208.97;;;39.14;30.67
19736;BME280;32064;49.310;8.646;2022-08-26T08:34:21;100203.00;;;39.67;30.36
19736;BME280;32064;49.310;8.646;2022-08-26T08:36:47;100196.91;;;39.10;31.80
19736;BME280;32064;49.310;8.646;2022-08-26T08:39:13;100203.72;;;38.66;31.88
19736;BME280;32064;49.310;8.646;2022-08-26T08:44:18;100206.47;;;41.04;28.87
19736;BME280;32064;49.310;8.646;2022-08-26T08:46:52;100199.53;;;41.95;27.91
19736;BME280;32064;49.310;8.646;2022-08-26T08:49:19;100200.53;;;42.77;27.32
19736;BME280;32064;49.310;8.646;2022-08-26T08:52:02;100188.25;;;41.25;28.37
19736;BME280;32064;49.310;8.646;2022-08-26T08:54:31;100201.06;;;39.54;30.27
19736;BME280;32064;49.310;8.646;2022-08-26T09:00:15;100192.44;;;37.86;31.55
19736;BME280;32064;49.310;8.646;2022-08-26T09:02:53;100191.00;;;37.46;31.99
19736;BME280;32064;49.310;8.646;2022-08-26T09:05:34;100191.00;;;37.46;32.19
19736;BME280;32064;49.310;8.646;2022-08-26T09:08:07;100184.34;;;37.76;32.22
19736;BME280;32064;49.310;8.646;2022-08-26T09:10:39;100184.13;;;37.72;32.27
19736;BME280;32064;49.310;8.646;2022-08-26T09:13:11;100185.63;;;37.36;32.54
19736;BME280;32064;49.310;8.646;2022-08-26T09:18:25;100178.69;;;36.46;33.23
19736;BME280;32064;49.310;8.646;2022-08-26T09:23:21;100176.25;;;36.05;33.50
19736;BME280;32064;49.310;8.646;2022-08-26T09:26:00;100173.03;;;35.87;33.83
19736;BME280;32064;49.310;8.646;2022-08-26T09:28:28;100176.34;;;35.79;34.01
19736;BME280;32064;49.310;8.646;2022-08-26T09:31:01;100174.00;;;36.12;34.03
19736;BME280;32064;49.310;8.646;2022-08-26T09:33:30;100169.09;;;36.48;33.93
19736;BME280;32064;49.310;8.646;2022-08-26T09:38:40;100156.25;;;37.12;32.95
19736;BME280;32064;49.310;8.646;2022-08-26T09:41:22;100157.47;;;36.67;33.11
19736;BME280;32064;49.310;8.646;2022-08-26T09:46:36;100160.38;;;37.10;32.33
19736;BME280;32064;49.310;8.646;2022-08-26T09:49:21;100158.00;;;37.27;32.17
19736;BME280;32064;49.310;8.646;2022-08-26T09:52:02;100162.72;;;37.45;32.04
19736;BME280;32064;49.310;8.646;2022-08-26T09:54:28;100159.06;;;37.55;32.55
19736;BME280;32064;49.310;8.646;2022-08-26T09:57:09;100155.00;;;37.71;31.51
19736;BME280;32064;49.310;8.646;2022-08-26T09:59:36;100150.78;;;37.79;31.45
19736;BME280;32064;49.310;8.646;2022-08-26T10:02:38;100149.22;;;37.92;31.47
19736;BME280;32064;49.310;8.646;2022-08-26T10:05:08;100146.28;;;38.78;31.45
19736;BME280;32064;49.310;8.646;2022-08-26T10:10:19;100129.34;;;40.54;29.61
19736;BME280;32064;49.310;8.646;2022-08-26T10:13:01;100124.84;;;41.12;28.11
19736;BME280;32064;49.310;8.646;2022-08-26T10:15:33;100117.72;;;41.19;28.79
19736;BME280;32064;49.310;8.646;2022-08-26T10:18:06;100113.25;;;41.49;27.81
19736;BME280;32064;49.310;8.646;2022-08-26T10:20:37;100114.25;;;42.49;27.15
19736;BME280;32064;49.310;8.646;2022-08-26T10:23:10;100106.41;;;43.16;26.10
19736;BME280;32064;49.310;8.646;2022-08-26T10:25:47;100112.88;;;43.79;25.42
19736;BME280;32064;49.310;8.646;2022-08-26T10:31:53;100102.25;;;44.56;24.81
19736;BME280;32064;49.310;8.646;2022-08-26T10:33:54;100107.16;;;45.09;24.11
19736;BME280;32064;49.310;8.646;2022-08-26T10:36:22;100114.34;;;44.85;24.04
19736;BME280;32064;49.310;8.646;2022-08-26T10:39:13;100109.22;;;44.75;23.87
19736;BME280;32064;49.310;8.646;2022-08-26T10:41:44;100106.84;;;45.22;23.91
19736;BME280;32064;49.310;8.646;2022-08-26T10:44:14;100111.91;;;44.96;23.61
19736;BME280;32064;49.310;8.646;2022-08-26T10:46:54;100110.31;;;44.49;23.39
19736;BME280;32064;49.310;8.646;2022-08-26T10:49:21;100109.69;;;44.10;24.25
19736;BME280;32064;49.310;8.646;2022-08-26T10:51:57;100107.81;;;44.69;24.23
19736;BME280;32064;49.310;8.646;2022-08-26T10:57:29;100100.06;;;45.48;22.92
19736;BME280;32064;49.310;8.646;2022-08-26T11:00:18;100096.16;;;45.37;22.95
19736;BME280;32064;49.310;8.646;2022-08-26T11:06:20;100080.25;;;46.02;21.91
19736;BME280;32064;49.310;8.646;2022-08-26T11:08:48;100081.81;;;46.16;22.43
19736;BME280;32064;49.310;8.646;2022-08-26T11:16:53;100067.13;;;46.31;21.03
19736;BME280;32064;49.310;8.646;2022-08-26T11:22:24;100065.34;;;45.82;21.46
19736;BME280;32064;49.310;8.646;2022-08-26T11:32:48;100060.69;;;43.31;24.02
19736;BME280;32064;49.310;8.646;2022-08-26T11:38:19;100044.00;;;41.89;24.80
19736;BME280;32064;49.310;8.646;2022-08-26T11:40:55;100032.91;;;41.37;25.33
19736;BME280;32064;49.310;8.646;2022-08-26T11:43:23;100026.34;;;41.07;26.34
19736;BME280;32064;49.310;8.646;2022-08-26T11:46:03;100025.13;;;40.91;26.33
19736;BME280;32064;49.310;8.646;2022-08-26T11:48:39;100013.13;;;40.87;25.78
19736;BME280;32064;49.310;8.646;2022-08-26T11:51:11;100009.69;;;40.81;26.41
19736;BME280;32064;49.310;8.646;2022-08-26T11:53:39;100011.16;;;40.87;26.83
19736;BME280;32064;49.310;8.646;2022-08-26T11:56:11;100006.16;;;40.89;26.45
19736;BME280;32064;49.310;8.646;2022-08-26T11:58:45;100017.19;;;40.89;26.14
19736;BME280;32064;49.310;8.646;2022-08-26T12:01:22;100011.66;;;40.80;26.06
19736;BME280;32064;49.310;8.646;2022-08-26T12:03:51;100015.25;;;40.90;26.81
19736;BME280;32064;49.310;8.646;2022-08-26T12:06:25;100016.97;;;41.08;25.97
19736;BME280;32064;49.310;8.646;2022-08-26T12:08:54;100005.88;;;40.99;26.12
19736;BME280;32064;49.310;8.646;2022-08-26T12:11:24;100004.34;;;40.84;26.88
19736;BME280;32064;49.310;8.646;2022-08-26T12:14:04;99997.53;;;40.91;26.50
19736;BME280;32064;49.310;8.646;2022-08-26T12:16:32;99995.16;;;41.06;26.16
19736;BME280;32064;49.310;8.646;2022-08-26T12:18:58;99981.06;;;41.17;26.19
19736;BME280;32064;49.310;8.646;2022-08-26T12:21:29;99981.38;;;41.06;25.88
19736;BME280;32064;49.310;8.646;2022-08-26T12:23:57;99984.94;;;41.07;25.96
19736;BME280;32064;49.310;8.646;2022-08-26T12:26:27;99985.44;;;41.09;26.09
19736;BME280;32064;49.310;8.646;2022-08-26T12:28:57;99986.09;;;41.15;26.36
19736;BME280;32064;49.310;8.646;2022-08-26T12:33:49;99981.06;;;41.17;26.20
19736;BME280;32064;49.310;8.646;2022-08-26T12:36:22;99976.66;;;41.07;25.61
19736;BME280;32064;49.310;8.646;2022-08-26T12:38:48;99974.34;;;40.92;26.31
19736;BME280;32064;49.310;8.646;2022-08-26T12:41:36;99981.50;;;40.22;26.72
19736;BME280;32064;49.310;8.646;2022-08-26T12:44:03;99969.69;;;39.40;26.69
19736;BME280;32064;49.310;8.646;2022-08-26T12:46:29;99964.69;;;39.42;27.42
19736;BME280;32064;49.310;8.646;2022-08-26T12:48:54;99973.72;;;39.56;26.29
19736;BME280;32064;49.310;8.646;2022-08-26T12:51:27;99970.44;;;39.32;26.86
19736;BME280;32064;49.310;8.646;2022-08-26T12:53:53;99970.06;;;38.97;27.68
19736;BME280;32064;49.310;8.646;2022-08-26T12:59:21;99967.09;;;38.52;27.38
19736;BME280;32064;49.310;8.646;2022-08-26T13:01:45;99955.16;;;38.29;28.17
19736;BME280;32064;49.310;8.646;2022-08-26T13:05:02;99948.63;;;37.92;28.09
19736;BME280;32064;49.310;8.646;2022-08-26T13:07:25;99941.47;;;38.10;28.75
19736;BME280;32064;49.310;8.646;2022-08-26T13:09:56;99935.00;;;38.47;28.37
19736;BME280;32064;49.310;8.646;2022-08-26T13:12:28;99926.44;;;38.76;27.58
19736;BME280;32064;49.310;8.646;2022-08-26T13:14:55;99920.09;;;39.03;27.02
19736;BME280;32064;49.310;8.646;2022-08-26T13:17:21;99911.56;;;38.77;28.06
19736;BME280;32064;49.310;8.646;2022-08-26T13:19:47;99914.66;;;38.48;27.67
19736;BME280;32064;49.310;8.646;2022-08-26T13:22:19;99908.81;;;38.22;28.03
19736;BME280;32064;49.310;8.646;2022-08-26T13:24:47;99899.41;;;37.95;28.87
19736;BME280;32064;49.310;8.646;2022-08-26T13:27:13;99901.16;;;37.72;28.45
19736;BME280;32064;49.310;8.646;2022-08-26T13:29:39;99897.44;;;37.82;28.13
19736;BME280;32064;49.310;8.646;2022-08-26T13:32:06;99888.91;;;37.65;28.62
19736;BME280;32064;49.310;8.646;2022-08-26T13:34:32;99891.84;;;37.55;28.63
19736;BME280;32064;49.310;8.646;2022-08-26T13:37:00;99893.47;;;37.56;28.75
19736;BME280;32064;49.310;8.646;2022-08-26T13:39:26;99892.72;;;37.31;29.70
19736;BME280;32064;49.310;8.646;2022-08-26T13:41:52;99894.44;;;37.08;29.57
19736;BME280;32064;49.310;8.646;2022-08-26T13:44:20;99900.66;;;36.95;29.61
19736;BME280;32064;49.310;8.646;2022-08-26T13:46:46;99903.59;;;36.79;30.03
19736;BME280;32064;49.310;8.646;2022-08-26T13:49:12;99897.53;;;36.82;29.93
19736;BME280;32064;49.310;8.646;2022-08-26T13:51:37;99907.56;;;36.92;29.82